MRY weather

Monterey Peninsula Airport
Monterey, California, United States

Public forecast

Using degrees Fahrenheit for public forecast. Weather courtesy of forecast.io.

METAR (pilot weather report)

Retrieved 2019/08/22 03:36 UTC (21 minutes ago):

KMRY 220336Z VRB04KT 10SM OVC004 20/17 A2994 RMK AO2 T02000167

TAF (pilot weather forecast)

Forecast is more than 12 hours old.

Retrieved 2019/08/21 00:24 UTC (1 day ago):

TAF KMRY 212322Z 2200/2224 29010KT P6SM SKC FM220400 22005KT P6SM FEW008 FM220600 22005KT P6SM BKN006 FM220900 18003KT 2SM BR OVC004 FM221600 29003KT P6SM SCT005 FM221800 29005KT P6SM SKC FM222100 29008KT P6SM SKC